Terminal Aerodrome Forecast
Issued by NWS

Home | Current Version | Previous Version | Text Only | Print | Product List | Glossary On
Versions: 1 2 3 4 5 6 7 8 9 10 11 12 13 14 15 16 17
000
FTUS45 KGJT 270543
TAFMTJ
TAF
KMTJ 270543Z 2706/2806 31010KT P6SM BKN200
     FM270800 14005KT P6SM SCT200
     FM271800 32004KT P6SM VCSH SCT070 BKN120
     FM272200 35005KT P6SM VCTS BKN070CB OVC120
     FM280200 14005KT P6SM SCT070 BKN120=

USA.gov is the U.S. government's official web portal to all federal, state and local government web resources and services.